Ivesdale, Illinois
Current Conditions -  °F | °C
As of 2:53 AM on Thursday 23 Oct 2014 (Local Time) from KCMI Reporting Station
Clear Clear  
Wind Chill: 31°   Ceiling: Unl
Heat Index: 35°   Visibility: 10mi
Dew Point: 33°   Wind: 5mph
Humidity: 92%   Direction: 120°ESE
Pressure: 30.24"   Gusts: NA
Location:  39.94°N, 88.46°W
Report Text: KCMI 230753Z AUTO 12004KT 10SM CLR 02/01 A3024 RMK AO2 SLP241 T00170006 $
Loading
Personal Weather Stations






























Interactive Weather Map
Tropical Storm Tracking
New forecast layout! Learn more

10-Day Weather Forecast

Advertisements
Track Severe Weather on mobile